Time;durP1;ratioP1;P1;durP2;ratioP2;P2;SDS_P1;SDS_P2;PMS_P1;PMS_P2;Temp;Humidity;BMP_temperature;BMP_pressure;BME280_temperature;BME280_humidity;BME280_pressure;Samples;Min_cycle;Max_cycle;Signal;HPM_P1;HPM_P2
2022/03/18 00:01:21;;;;;;;13.70;6.93;;;6.40;80.40;;;;;;4917137;29;20063;-73
2022/03/18 00:03:47;;;;;;;21.42;7.53;;;6.40;80.50;;;;;;4915806;29;20099;-74
2022/03/18 00:06:16;;;;;;;19.30;7.07;;;6.40;80.60;;;;;;4916514;29;20086;-74
2022/03/18 00:08:42;;;;;;;18.23;7.82;;;6.40;80.70;;;;;;4915601;29;20055;-74
2022/03/18 00:11:08;;;;;;;22.17;8.05;;;6.40;80.80;;;;;;4916486;29;20131;-74
2022/03/18 00:13:34;;;;;;;17.55;7.22;;;6.30;81.00;;;;;;4915878;29;20087;-73
2022/03/18 00:16:00;;;;;;;16.33;8.55;;;6.30;81.10;;;;;;4916314;29;20099;-74
2022/03/18 00:18:26;;;;;;;21.58;8.63;;;6.30;81.50;;;;;;4914440;29;20072;-74
2022/03/18 00:20:51;;;;;;;15.15;7.88;;;6.30;81.50;;;;;;4915464;29;20135;-73
2022/03/18 00:23:20;;;;;;;13.43;8.38;;;6.30;81.40;;;;;;4914823;29;20111;-74
2022/03/18 00:25:46;;;;;;;17.65;8.70;;;6.30;81.60;;;;;;4913548;29;20051;-73
2022/03/18 00:28:11;;;;;;;13.82;8.88;;;6.30;82.00;;;;;;4915992;29;20055;-73
2022/03/18 00:30:37;;;;;;;17.35;7.43;;;6.20;82.30;;;;;;4915213;29;20133;-74
2022/03/18 00:33:03;;;;;;;16.90;8.95;;;6.20;82.30;;;;;;4915457;29;20822;-74
2022/03/18 00:35:29;;;;;;;15.85;7.63;;;6.30;82.10;;;;;;4914167;29;20088;-74
2022/03/18 00:37:54;;;;;;;20.25;7.72;;;6.20;82.50;;;;;;4915922;29;20040;-73
2022/03/18 00:40:20;;;;;;;19.23;8.45;;;6.20;82.60;;;;;;4914812;29;20044;-73
2022/03/18 00:42:46;;;;;;;16.27;8.68;;;6.20;82.70;;;;;;4915514;29;20103;-72
2022/03/18 00:45:13;;;;;;;17.23;8.23;;;6.20;82.70;;;;;;4914653;29;20497;-73
2022/03/18 00:53:08;;;;;;;18.95;9.50;;;6.20;82.60;;;;;;4932837;29;20072;-73
2022/03/18 00:55:33;;;;;;;21.27;8.18;;;6.20;82.50;;;;;;4934247;29;20100;-73
2022/03/18 00:57:59;;;;;;;19.05;8.43;;;6.20;82.50;;;;;;4901490;29;20071;-72
2022/03/18 01:00:24;;;;;;;18.95;8.20;;;6.10;82.60;;;;;;4933444;29;20044;-73
2022/03/18 01:02:50;;;;;;;17.83;8.07;;;6.20;82.60;;;;;;4917423;29;20043;-72
2022/03/18 01:05:15;;;;;;;17.23;8.90;;;6.20;82.60;;;;;;4931430;29;20103;-73
2022/03/18 01:07:41;;;;;;;16.40;8.55;;;6.10;82.90;;;;;;4933770;29;20046;-73
2022/03/18 01:10:07;;;;;;;12.30;8.60;;;6.20;82.80;;;;;;4934731;29;20114;-73
2022/03/18 01:12:33;;;;;;;17.25;9.52;;;6.20;83.00;;;;;;4933079;29;20118;-73
2022/03/18 01:14:58;;;;;;;19.73;8.80;;;6.20;83.00;;;;;;4919030;29;20472;-73
2022/03/18 01:17:24;;;;;;;19.23;9.82;;;6.20;83.10;;;;;;4923821;29;20522;-73
2022/03/18 01:19:50;;;;;;;24.55;9.57;;;6.20;83.20;;;;;;4934163;29;20102;-74
2022/03/18 01:22:15;;;;;;;15.00;9.45;;;6.10;83.80;;;;;;4922888;29;20040;-74
2022/03/18 01:24:41;;;;;;;17.17;9.63;;;6.20;83.50;;;;;;4918370;29;20048;-73
2022/03/18 01:27:07;;;;;;;18.58;10.27;;;6.20;83.60;;;;;;4928558;29;20048;-74
2022/03/18 01:29:35;;;;;;;17.75;9.60;;;6.20;83.70;;;;;;4934424;29;20043;-73
2022/03/18 01:32:01;;;;;;;18.25;9.68;;;6.30;83.60;;;;;;4935166;29;20050;-74
2022/03/18 01:34:26;;;;;;;18.63;9.93;;;6.30;83.60;;;;;;4922158;29;20040;-74
2022/03/18 01:36:52;;;;;;;21.00;10.20;;;6.30;83.60;;;;;;4916516;29;20040;-74
2022/03/18 01:39:18;;;;;;;21.15;10.18;;;6.30;83.70;;;;;;4916232;29;20048;-74
2022/03/18 01:41:44;;;;;;;19.10;11.45;;;6.40;83.70;;;;;;4904410;29;20471;-73
2022/03/18 01:44:11;;;;;;;22.63;9.45;;;6.40;83.70;;;;;;4918786;29;20050;-74
2022/03/18 01:46:39;;;;;;;18.30;9.48;;;6.40;83.60;;;;;;4928333;29;20485;-73
2022/03/18 01:49:06;;;;;;;18.58;9.45;;;6.40;83.60;;;;;;4933110;29;20083;-73
2022/03/18 01:51:33;;;;;;;14.07;8.95;;;6.40;83.60;;;;;;4933189;29;20067;-73
2022/03/18 01:56:44;;;;;;;12.98;9.73;;;6.40;83.40;;;;;;4926692;29;20055;-73
2022/03/18 01:59:12;;;;;;;17.92;9.82;;;6.40;83.30;;;;;;4915943;29;20465;-73
2022/03/18 02:01:38;;;;;;;16.13;8.50;;;6.40;83.50;;;;;;4934329;29;20051;-74
2022/03/18 02:04:04;;;;;;;18.45;9.40;;;6.40;83.30;;;;;;4921743;29;20058;-73
2022/03/18 02:06:30;;;;;;;15.85;9.40;;;6.30;83.40;;;;;;4919569;29;20047;-73
2022/03/18 02:08:56;;;;;;;16.08;8.20;;;6.30;83.30;;;;;;4934409;29;20044;-74
2022/03/18 02:11:22;;;;;;;15.73;8.98;;;6.30;83.20;;;;;;4928696;29;20036;-74
2022/03/18 02:13:51;;;;;;;15.07;8.30;;;6.30;83.10;;;;;;4907550;29;20130;-73
2022/03/18 02:16:17;;;;;;;21.08;8.88;;;6.30;83.20;;;;;;4932126;29;20131;-73
2022/03/18 02:18:43;;;;;;;20.30;8.52;;;6.30;83.20;;;;;;4914825;29;20123;-73
2022/03/18 02:21:12;;;;;;;13.18;7.68;;;6.30;83.10;;;;;;4922820;29;20051;-73
2022/03/18 02:23:39;;;;;;;20.00;9.02;;;6.30;83.00;;;;;;4934091;29;20497;-74
2022/03/18 02:26:04;;;;;;;16.88;8.75;;;6.40;82.90;;;;;;4910732;29;20044;-74
2022/03/18 02:28:30;;;;;;;27.80;10.70;;;6.30;83.00;;;;;;4933809;29;20035;-74
2022/03/18 02:30:55;;;;;;;17.40;9.63;;;6.40;83.10;;;;;;4928045;29;20450;-73
2022/03/18 02:33:21;;;;;;;23.90;8.93;;;6.30;83.10;;;;;;4914382;29;20055;-74
2022/03/18 02:35:51;;;;;;;16.75;9.18;;;6.30;82.90;;;;;;4916791;29;20046;-73
2022/03/18 02:38:17;;;;;;;17.85;9.02;;;6.30;83.00;;;;;;4923738;29;20090;-74
2022/03/18 02:40:42;;;;;;;17.83;9.38;;;6.30;82.90;;;;;;4930552;29;20071;-74
2022/03/18 02:43:08;;;;;;;17.17;8.73;;;6.30;82.90;;;;;;4914946;29;20557;-74
2022/03/18 02:45:34;;;;;;;16.05;9.27;;;6.30;82.80;;;;;;4915396;29;20067;-74
2022/03/18 02:48:00;;;;;;;17.10;8.98;;;6.30;82.70;;;;;;4915672;29;20048;-74
2022/03/18 02:50:26;;;;;;;20.27;8.38;;;6.30;82.70;;;;;;4914094;29;20403;-73
2022/03/18 02:52:51;;;;;;;16.75;8.57;;;6.40;82.60;;;;;;4932827;29;20039;-72
2022/03/18 02:55:18;;;;;;;17.15;7.65;;;6.30;82.50;;;;;;4933525;29;20543;-75
2022/03/18 02:57:44;;;;;;;19.15;8.23;;;6.30;82.30;;;;;;4928077;29;20058;-74
2022/03/18 03:00:10;;;;;;;11.63;6.78;;;6.40;82.20;;;;;;4914447;29;20052;-73
2022/03/18 03:02:36;;;;;;;12.82;6.72;;;6.30;81.90;;;;;;4914704;29;20150;-73
2022/03/18 03:08:00;;;;;;;12.90;6.18;;;6.30;81.60;;;;;;4932138;29;20048;-73
2022/03/18 03:10:36;;;;;;;14.18;7.32;;;6.30;81.60;;;;;;4919439;29;20043;-73
2022/03/18 03:13:06;;;;;;;14.43;5.40;;;6.40;81.40;;;;;;4920862;29;20056;-73
2022/03/18 03:15:32;;;;;;;10.43;5.68;;;6.30;81.20;;;;;;4919068;29;20363;-73
2022/03/18 03:17:57;;;;;;;10.05;5.28;;;6.30;81.00;;;;;;4932873;29;20067;-73
2022/03/18 03:20:23;;;;;;;15.52;7.22;;;6.30;80.80;;;;;;4931487;29;20432;-74
2022/03/18 03:22:49;;;;;;;16.58;5.53;;;6.40;80.60;;;;;;4918386;29;20052;-74
2022/03/18 03:25:14;;;;;;;11.68;5.50;;;6.40;80.40;;;;;;4920057;29;20040;-74
2022/03/18 03:27:40;;;;;;;16.80;5.43;;;6.40;80.30;;;;;;4936961;29;20134;-73
2022/03/18 03:30:08;;;;;;;12.73;5.40;;;6.40;80.20;;;;;;4925370;29;20043;-74
2022/03/18 03:32:34;;;;;;;19.63;5.55;;;6.40;80.10;;;;;;4936822;29;20504;-74
2022/03/18 03:35:00;;;;;;;11.68;6.15;;;6.40;80.00;;;;;;4934997;29;20131;-74
2022/03/18 03:37:27;;;;;;;10.70;5.63;;;6.40;80.00;;;;;;4918224;29;20361;-74
2022/03/18 03:39:53;;;;;;;16.30;6.05;;;6.40;80.00;;;;;;4931816;29;20051;-74
2022/03/18 03:42:19;;;;;;;13.88;5.22;;;6.40;80.00;;;;;;4936855;29;20043;-74
2022/03/18 03:44:45;;;;;;;12.20;5.13;;;6.60;80.00;;;;;;4933641;29;20047;-73
2022/03/18 03:47:11;;;;;;;11.50;5.20;;;6.60;80.00;;;;;;4919425;29;20056;-73
2022/03/18 03:49:37;;;;;;;11.85;4.70;;;6.50;79.90;;;;;;4928102;29;20051;-73
2022/03/18 03:52:03;;;;;;;11.18;5.22;;;6.60;79.90;;;;;;4936404;29;20559;-73
2022/03/18 03:54:29;;;;;;;11.18;5.10;;;6.60;79.80;;;;;;4918887;29;20079;-73
2022/03/18 03:56:57;;;;;;;11.18;5.72;;;6.50;79.90;;;;;;4935846;29;20047;-74
2022/03/18 03:59:23;;;;;;;9.65;5.40;;;6.60;79.90;;;;;;4917349;29;21668;-74
2022/03/18 04:01:49;;;;;;;9.70;5.28;;;6.60;80.00;;;;;;4917797;29;20151;-73
2022/03/18 04:04:14;;;;;;;13.98;5.72;;;6.60;79.90;;;;;;4925302;29;20155;-74
2022/03/18 04:06:40;;;;;;;12.57;6.00;;;6.60;79.90;;;;;;4924852;29;20098;-74
2022/03/18 04:09:05;;;;;;;9.80;4.85;;;6.60;79.80;;;;;;4923279;29;20040;-74
2022/03/18 04:11:31;;;;;;;9.65;5.30;;;6.60;79.80;;;;;;4918057;29;20040;-73
2022/03/18 04:13:57;;;;;;;11.73;5.13;;;6.60;79.80;;;;;;4920507;29;20043;-73
2022/03/18 04:16:23;;;;;;;9.77;5.35;;;6.70;79.70;;;;;;4927025;29;20063;-73
2022/03/18 04:18:48;;;;;;;11.73;5.30;;;6.60;79.70;;;;;;4919431;29;20059;-73
2022/03/18 04:21:14;;;;;;;9.23;6.13;;;6.60;79.70;;;;;;4920095;29;20492;-73
2022/03/18 04:23:41;;;;;;;9.45;5.72;;;6.70;79.70;;;;;;4926071;29;20039;-73
2022/03/18 04:26:07;;;;;;;15.23;6.28;;;6.70;79.70;;;;;;4928424;29;20417;-73
2022/03/18 04:28:33;;;;;;;11.75;5.95;;;6.70;79.70;;;;;;4932118;29;20044;-74
2022/03/18 04:30:58;;;;;;;15.85;6.32;;;6.70;79.70;;;;;;4917598;29;20052;-73
2022/03/18 04:33:24;;;;;;;13.48;5.93;;;6.70;79.70;;;;;;4916590;29;20051;-72
2022/03/18 04:35:51;;;;;;;12.45;5.80;;;6.60;79.70;;;;;;4918629;29;20047;-72
2022/03/18 04:38:17;;;;;;;12.95;5.18;;;6.60;79.70;;;;;;4921925;29;20048;-73
2022/03/18 04:40:43;;;;;;;13.05;5.82;;;6.60;79.60;;;;;;4916347;29;20052;-71
2022/03/18 04:43:08;;;;;;;17.75;5.82;;;6.60;79.70;;;;;;4925548;29;20039;-72
2022/03/18 04:45:34;;;;;;;9.27;5.50;;;6.60;79.70;;;;;;4918251;29;20731;-72
2022/03/18 04:48:00;;;;;;;12.88;5.70;;;6.60;79.60;;;;;;4914936;29;20051;-73
2022/03/18 04:50:26;;;;;;;11.07;5.45;;;6.60;79.60;;;;;;4918441;29;20046;-73
2022/03/18 04:52:51;;;;;;;12.63;5.18;;;6.60;79.60;;;;;;4928834;29;20083;-72
2022/03/18 04:55:17;;;;;;;10.80;5.60;;;6.60;79.50;;;;;;4932891;29;20052;-72
2022/03/18 04:57:43;;;;;;;10.85;6.32;;;6.90;82.60;;;;;;4933776;29;20179;-73
2022/03/18 05:00:09;;;;;;;11.60;5.53;;;7.40;83.10;;;;;;4928449;29;20517;-71
2022/03/18 05:02:36;;;;;;;8.52;4.47;;;7.60;81.50;;;;;;4922915;29;20044;-72
2022/03/18 05:05:03;;;;;;;8.70;4.18;;;7.50;79.80;;;;;;4930916;29;20645;-72
2022/03/18 05:07:28;;;;;;;8.93;4.47;;;7.30;79.00;;;;;;4933487;29;20067;-72
2022/03/18 05:09:54;;;;;;;8.32;4.30;;;7.20;78.60;;;;;;4926855;29;20048;-72
2022/03/18 05:12:20;;;;;;;10.32;4.30;;;7.10;78.40;;;;;;4916673;29;20047;-72
2022/03/18 05:14:45;;;;;;;10.45;4.70;;;6.90;78.30;;;;;;4920228;29;20748;-71
2022/03/18 05:17:11;;;;;;;14.55;4.65;;;6.90;78.40;;;;;;4914288;29;20059;-72
2022/03/18 05:19:38;;;;;;;8.75;4.18;;;6.80;78.40;;;;;;4925784;29;20047;-72
2022/03/18 05:22:05;;;;;;;12.77;4.40;;;6.70;78.40;;;;;;4928724;29;20123;-72
2022/03/18 05:24:30;;;;;;;8.45;4.28;;;6.60;78.30;;;;;;4934175;29;20085;-72
2022/03/18 05:26:57;;;;;;;6.85;4.20;;;6.60;78.40;;;;;;4937313;29;20044;-72
2022/03/18 05:29:23;;;;;;;11.02;4.40;;;6.50;78.40;;;;;;4928380;29;20055;-72
2022/03/18 05:31:49;;;;;;;10.65;5.88;;;6.40;78.50;;;;;;4931337;29;20118;-72
2022/03/18 05:34:15;;;;;;;8.57;5.07;;;6.40;78.50;;;;;;4934124;29;20473;-72
2022/03/18 05:36:41;;;;;;;7.30;4.20;;;6.40;78.50;;;;;;4931029;29;20424;-72
2022/03/18 05:39:08;;;;;;;11.75;4.20;;;6.20;78.50;;;;;;4931406;29;20040;-72
2022/03/18 05:41:34;;;;;;;14.75;7.18;;;6.20;78.70;;;;;;4926860;29;20062;-72
2022/03/18 05:43:59;;;;;;;11.35;6.13;;;6.20;78.80;;;;;;4930043;29;20047;-72
2022/03/18 05:46:25;;;;;;;8.93;4.20;;;6.10;78.80;;;;;;4932182;29;20067;-72
2022/03/18 05:48:51;;;;;;;11.80;4.28;;;6.10;78.80;;;;;;4932632;29;20063;-73
2022/03/18 05:51:17;;;;;;;9.95;4.57;;;6.00;78.80;;;;;;4911398;29;20120;-73
2022/03/18 05:53:43;;;;;;;11.93;5.65;;;5.90;78.90;;;;;;4911007;29;20055;-73
2022/03/18 05:58:55;;;;;;;10.23;5.30;;;6.00;79.30;;;;;;4913582;29;20063;-73
2022/03/18 06:01:20;;;;;;;12.75;5.82;;;5.90;79.40;;;;;;4904289;29;20044;-73
2022/03/18 06:03:48;;;;;;;9.52;4.68;;;5.90;79.50;;;;;;4906596;29;20569;-73
2022/03/18 06:06:14;;;;;;;8.85;4.70;;;6.00;79.50;;;;;;4920405;29;20102;-73
2022/03/18 06:14:08;;;;;;;11.73;4.85;;;5.90;79.60;;;;;;4912841;29;20501;-72
2022/03/18 06:16:36;;;;;;;11.52;4.97;;;5.80;79.70;;;;;;4910536;29;20121;-73
2022/03/18 06:19:01;;;;;;;11.10;4.97;;;5.80;79.70;;;;;;4912584;29;20051;-73
2022/03/18 06:21:27;;;;;;;7.80;4.93;;;5.80;79.80;;;;;;4910107;29;20513;-72
2022/03/18 06:23:53;;;;;;;8.40;4.68;;;5.90;79.80;;;;;;4913352;29;20050;-73
2022/03/18 06:26:18;;;;;;;10.40;5.15;;;5.80;79.80;;;;;;4904187;29;20047;-71
2022/03/18 06:28:44;;;;;;;6.88;5.30;;;5.90;79.80;;;;;;4906449;29;20047;-73
2022/03/18 06:31:10;;;;;;;8.70;4.75;;;5.90;79.80;;;;;;4917590;29;20523;-73
2022/03/18 06:33:41;;;;;;;10.90;5.45;;;5.80;79.80;;;;;;4910439;29;20084;-72
2022/03/18 06:36:07;;;;;;;11.52;5.05;;;5.90;80.00;;;;;;4901145;29;20044;-73
2022/03/18 06:38:33;;;;;;;7.18;4.30;;;5.90;80.00;;;;;;4911747;29;20395;-73
2022/03/18 06:40:59;;;;;;;10.25;5.22;;;5.90;80.00;;;;;;4903498;29;20180;-73
2022/03/18 06:43:24;;;;;;;8.32;5.07;;;5.90;80.00;;;;;;4895060;29;20044;-76
2022/03/18 06:45:50;;;;;;;7.93;5.30;;;5.90;80.00;;;;;;4911151;29;20048;-72
2022/03/18 06:48:16;;;;;;;7.10;5.30;;;5.90;80.00;;;;;;4902252;29;20036;-73
2022/03/18 06:50:41;;;;;;;8.75;5.25;;;5.90;80.10;;;;;;4937669;28;20051;-73
2022/03/18 06:53:07;;;;;;;9.70;5.35;;;5.90;80.10;;;;;;4931721;29;20091;-72
2022/03/18 06:55:33;;;;;;;6.70;5.40;;;6.00;80.20;;;;;;4928450;29;20043;-72
2022/03/18 06:57:58;;;;;;;7.43;5.35;;;6.00;80.30;;;;;;4919424;29;20497;-72
2022/03/18 07:00:24;;;;;;;8.13;5.43;;;6.10;80.30;;;;;;4934302;28;20047;-73
2022/03/18 07:02:50;;;;;;;9.77;5.93;;;6.10;80.30;;;;;;4926825;29;20067;-73
2022/03/18 07:05:16;;;;;;;11.93;6.38;;;6.20;80.40;;;;;;4931075;29;20162;-74
2022/03/18 07:07:41;;;;;;;9.43;6.35;;;6.30;80.40;;;;;;4917237;29;20056;-74
2022/03/18 07:10:08;;;;;;;12.30;6.22;;;6.30;80.50;;;;;;4910581;29;20130;-74
2022/03/18 07:12:33;;;;;;;13.73;6.80;;;6.40;80.50;;;;;;4923836;29;20054;-73
2022/03/18 07:14:59;;;;;;;9.30;7.15;;;6.60;80.50;;;;;;4929010;29;20047;-73
2022/03/18 07:20:09;;;;;;;11.50;7.68;;;7.30;83.80;;;;;;4912476;29;20517;-72
2022/03/18 07:22:35;;;;;;;13.55;6.95;;;7.60;82.20;;;;;;4927876;29;20048;-70
2022/03/18 07:25:01;;;;;;;12.25;6.70;;;7.60;80.90;;;;;;4902311;29;20185;-71
2022/03/18 07:27:26;;;;;;;12.63;6.32;;;7.60;80.20;;;;;;4913167;29;20119;-71
2022/03/18 07:29:52;;;;;;;10.73;6.93;;;7.60;79.90;;;;;;4912443;29;20040;-71
2022/03/18 07:32:17;;;;;;;15.27;8.68;;;7.60;79.80;;;;;;4911792;29;20044;-70
2022/03/18 07:34:43;;;;;;;12.75;7.32;;;7.60;79.80;;;;;;4928577;29;20516;-70
2022/03/18 07:37:09;;;;;;;17.80;8.93;;;7.60;79.90;;;;;;4913726;29;20040;-70
2022/03/18 07:39:34;;;;;;;22.30;10.18;;;7.60;80.00;;;;;;4931606;29;20199;-70
2022/03/18 07:42:00;;;;;;;23.77;13.23;;;7.60;81.70;;;;;;4931508;29;20468;-71
2022/03/18 07:44:25;;;;;;;20.10;10.63;;;7.50;81.80;;;;;;4927253;29;20175;-71
2022/03/18 07:46:51;;;;;;;23.35;11.63;;;7.40;82.60;;;;;;4931182;29;20058;-71
2022/03/18 07:49:17;;;;;;;16.77;10.55;;;7.50;82.20;;;;;;4913142;29;20119;-68
2022/03/18 07:51:42;;;;;;;26.40;11.50;;;7.50;82.50;;;;;;4920157;29;20048;-70
2022/03/18 07:54:08;;;;;;;16.08;10.73;;;7.60;82.40;;;;;;4896278;29;20056;-69
2022/03/18 07:56:33;;;;;;;23.88;10.98;;;7.60;82.50;;;;;;4913037;29;20099;-69
2022/03/18 07:59:00;;;;;;;17.08;11.23;;;7.70;82.50;;;;;;4916171;29;20680;-69
2022/03/18 08:01:26;;;;;;;18.98;10.45;;;7.70;82.50;;;;;;4906286;29;20126;-67
2022/03/18 08:03:52;;;;;;;21.95;11.20;;;7.90;83.70;;;;;;4920194;29;20115;-69
2022/03/18 08:06:19;;;;;;;25.88;13.40;;;8.00;83.70;;;;;;4928161;29;20083;-69
2022/03/18 08:08:45;;;;;;;25.80;12.63;;;8.10;84.00;;;;;;4932337;29;20052;-69
2022/03/18 08:11:11;;;;;;;27.52;12.45;;;8.20;83.40;;;;;;4917230;29;20044;-69
2022/03/18 08:13:36;;;;;;;31.23;12.25;;;8.30;83.40;;;;;;4934577;29;20183;-66
2022/03/18 08:16:02;;;;;;;25.10;12.10;;;8.40;83.20;;;;;;4921491;29;20044;-66
2022/03/18 08:18:28;;;;;;;26.05;11.10;;;8.50;83.10;;;;;;4916705;29;20413;-66
2022/03/18 08:20:53;;;;;;;20.33;10.15;;;8.80;83.50;;;;;;4915403;29;20044;-67
2022/03/18 08:23:19;;;;;;;24.80;10.88;;;9.10;83.40;;;;;;4920428;29;20154;-72
2022/03/18 08:25:45;;;;;;;28.40;13.73;;;9.60;84.10;;;;;;4935816;29;20039;-69
2022/03/18 08:28:11;;;;;;;20.73;11.20;;;9.60;82.90;;;;;;4929196;29;20127;-70
2022/03/18 08:30:38;;;;;;;22.52;10.38;;;9.60;82.30;;;;;;4933902;28;20087;-69
2022/03/18 08:33:04;;;;;;;25.52;11.10;;;9.60;82.10;;;;;;4931369;29;20070;-68
2022/03/18 08:35:30;;;;;;;24.80;10.80;;;9.60;81.90;;;;;;4943996;29;20052;-69
2022/03/18 08:37:56;;;;;;;25.45;11.57;;;9.60;82.00;;;;;;4930822;29;20091;-74
2022/03/18 08:40:29;;;;;;;28.73;13.23;;;9.50;82.00;;;;;;4927015;29;20083;-68
2022/03/18 08:42:57;;;;;;;24.10;11.43;;;9.50;82.10;;;;;;4916522;29;20044;-68
2022/03/18 08:45:24;;;;;;;21.35;11.00;;;9.60;82.10;;;;;;4933485;29;20102;-69
2022/03/18 08:47:50;;;;;;;21.85;11.90;;;9.60;82.10;;;;;;4933960;29;20051;-69
2022/03/18 08:50:17;;;;;;;24.58;11.43;;;9.50;82.30;;;;;;4926850;29;20104;-69
2022/03/18 08:52:43;;;;;;;23.65;12.88;;;9.60;82.50;;;;;;4950520;28;20122;-69
2022/03/18 08:55:09;;;;;;;29.77;14.23;;;9.60;82.70;;;;;;4936732;29;20219;-69
2022/03/18 08:57:37;;;;;;;28.23;12.98;;;9.70;82.50;;;;;;4933883;29;20060;-72
2022/03/18 09:00:08;;;;;;;22.80;12.10;;;9.80;82.50;;;;;;4931909;29;20070;-69
2022/03/18 09:02:35;;;;;;;34.15;11.23;;;9.80;82.50;;;;;;4947761;29;20110;-68
2022/03/18 09:05:01;;;;;;;29.25;11.73;;;9.90;82.50;;;;;;4933970;29;20047;-65
2022/03/18 09:07:27;;;;;;;17.27;10.43;;;9.90;82.60;;;;;;4933561;29;20059;-68
2022/03/18 09:09:52;;;;;;;24.65;10.05;;;10.00;82.80;;;;;;4934725;29;20051;-68
2022/03/18 09:12:18;;;;;;;21.92;10.43;;;10.10;82.50;;;;;;4917782;29;20047;-68
2022/03/18 09:14:45;;;;;;;25.38;9.77;;;10.10;82.30;;;;;;4901509;29;20044;-68
2022/03/18 09:17:11;;;;;;;27.25;9.75;;;10.20;82.10;;;;;;4934029;29;20496;-68
2022/03/18 09:19:37;;;;;;;25.35;9.32;;;10.20;82.00;;;;;;4933399;29;20090;-68
2022/03/18 09:22:16;;;;;;;20.75;10.88;;;10.40;81.90;;;;;;4933888;29;20427;-67
2022/03/18 09:24:43;;;;;;;25.30;10.57;;;10.50;81.50;;;;;;4934297;29;20048;-68
2022/03/18 09:27:09;;;;;;;23.13;11.32;;;10.50;81.50;;;;;;4933940;29;20032;-68
2022/03/18 09:29:36;;;;;;;19.05;8.75;;;10.50;81.20;;;;;;4933816;29;20068;-68
2022/03/18 09:32:02;;;;;;;22.33;9.15;;;10.60;81.20;;;;;;4933640;29;20036;-69
2022/03/18 09:34:28;;;;;;;18.90;8.68;;;10.60;80.80;;;;;;4932545;29;20055;-69
2022/03/18 09:36:55;;;;;;;20.75;9.68;;;10.60;80.70;;;;;;4924469;29;20394;-67
2022/03/18 09:39:23;;;;;;;30.60;13.65;;;10.70;80.70;;;;;;4915366;29;20506;-67
2022/03/18 09:41:49;;;;;;;17.23;8.95;;;10.70;80.90;;;;;;4915190;29;20047;-69
2022/03/18 09:44:15;;;;;;;21.35;10.38;;;10.80;81.00;;;;;;4921798;29;20047;-68
2022/03/18 09:46:42;;;;;;;26.23;9.07;;;10.80;81.10;;;;;;4915213;29;20047;-68
2022/03/18 09:49:11;;;;;;;29.15;9.30;;;10.90;80.70;;;;;;4915156;29;20154;-68
2022/03/18 09:51:42;;;;;;;19.67;8.68;;;11.00;80.70;;;;;;4914043;29;20059;-68
2022/03/18 09:54:10;;;;;;;23.73;9.10;;;11.00;80.60;;;;;;4914342;29;20476;-68
2022/03/18 09:56:39;;;;;;;21.25;9.02;;;11.00;80.60;;;;;;4914131;29;20147;-68
2022/03/18 09:59:05;;;;;;;30.55;9.88;;;11.10;80.50;;;;;;4914655;29;20430;-68
2022/03/18 10:01:31;;;;;;;24.02;8.55;;;11.20;80.30;;;;;;4897319;29;20048;-67
2022/03/18 10:04:03;;;;;;;25.15;10.25;;;11.20;80.30;;;;;;4926534;29;20450;-67
2022/03/18 10:06:29;;;;;;;26.55;9.23;;;11.30;80.10;;;;;;4933235;29;20106;-67
2022/03/18 10:08:57;;;;;;;21.05;9.23;;;11.30;79.90;;;;;;4932946;29;20040;-68
2022/03/18 10:11:28;;;;;;;22.67;8.77;;;11.40;79.90;;;;;;4927414;29;20051;-68
2022/03/18 10:14:07;;;;;;;17.90;8.18;;;11.50;79.60;;;;;;4914514;29;20040;-67
2022/03/18 10:16:37;;;;;;;26.55;9.52;;;11.50;79.60;;;;;;4913605;29;20087;-68
2022/03/18 10:19:24;;;;;;;22.52;9.23;;;11.60;79.60;;;;;;4897189;29;20070;-67
2022/03/18 10:21:56;;;;;;;15.40;7.82;;;11.60;79.50;;;;;;4913965;29;20056;-67
2022/03/18 10:24:36;;;;;;;26.15;8.68;;;11.60;79.40;;;;;;4914161;29;20062;-67
2022/03/18 10:27:23;;;;;;;22.10;10.88;;;11.70;79.10;;;;;;4913601;29;20449;-67
2022/03/18 10:29:56;;;;;;;20.98;9.05;;;11.80;79.00;;;;;;4896565;29;20040;-68
2022/03/18 10:32:24;;;;;;;25.90;8.38;;;11.90;79.00;;;;;;4913978;29;20062;-68
2022/03/18 10:37:45;;;;;;;20.73;9.18;;;11.90;78.70;;;;;;4914069;29;20469;-68
2022/03/18 10:40:12;;;;;;;25.45;8.52;;;12.10;78.60;;;;;;4897114;29;20084;-67
2022/03/18 10:42:37;;;;;;;25.27;11.35;;;12.10;78.30;;;;;;4928468;29;20474;-68
2022/03/18 10:45:04;;;;;;;23.98;8.80;;;12.10;78.30;;;;;;4932946;29;20094;-69
2022/03/18 10:47:41;;;;;;;24.73;9.55;;;12.20;78.10;;;;;;4932795;29;20466;-67
2022/03/18 10:50:29;;;;;;;27.15;7.78;;;12.30;77.90;;;;;;4932267;29;20107;-68
2022/03/18 10:52:57;;;;;;;28.02;9.20;;;12.40;77.20;;;;;;4918488;29;20553;-68
2022/03/18 10:55:26;;;;;;;20.60;7.25;;;12.40;77.00;;;;;;4921456;29;20062;-68
2022/03/18 10:57:53;;;;;;;23.40;7.97;;;12.40;76.50;;;;;;4912978;29;20501;-67
2022/03/18 11:00:20;;;;;;;23.75;6.28;;;12.40;76.50;;;;;;4913525;29;20055;-67
2022/03/18 11:02:51;;;;;;;21.73;7.28;;;12.50;75.90;;;;;;4913584;29;20044;-68
2022/03/18 11:05:20;;;;;;;18.50;7.18;;;12.60;75.80;;;;;;4913615;29;20056;-68
2022/03/18 11:07:47;;;;;;;18.67;6.65;;;12.60;75.80;;;;;;4913626;29;20127;-67
2022/03/18 11:13:03;;;;;;;21.25;6.43;;;12.70;75.70;;;;;;4930167;29;20055;-68
2022/03/18 11:15:31;;;;;;;20.60;7.43;;;12.70;75.60;;;;;;4932193;29;20047;-68
2022/03/18 11:17:57;;;;;;;19.48;7.55;;;12.80;75.40;;;;;;4932060;29;20048;-68
2022/03/18 11:20:27;;;;;;;24.95;6.78;;;12.90;75.20;;;;;;4931915;29;20043;-68
2022/03/18 11:22:54;;;;;;;15.93;5.93;;;12.90;75.00;;;;;;4931542;29;20086;-67
2022/03/18 11:25:21;;;;;;;27.10;6.43;;;13.00;75.00;;;;;;4920859;29;20079;-68
2022/03/18 11:27:47;;;;;;;19.52;6.70;;;13.10;74.80;;;;;;4919590;29;20490;-68
2022/03/18 11:30:17;;;;;;;19.92;6.47;;;13.10;74.50;;;;;;4928141;29;20087;-68
2022/03/18 11:32:43;;;;;;;15.52;4.88;;;13.20;74.10;;;;;;4934554;29;20077;-69
2022/03/18 11:35:09;;;;;;;17.75;5.28;;;13.30;73.40;;;;;;4948565;28;20079;-68
2022/03/18 11:37:35;;;;;;;17.80;5.30;;;13.30;72.90;;;;;;4920025;29;20044;-68
2022/03/18 11:40:18;;;;;;;16.40;6.82;;;13.30;72.30;;;;;;4931679;29;20051;-68
2022/03/18 11:42:45;;;;;;;21.30;4.70;;;13.30;72.20;;;;;;4934328;29;20092;-68
2022/03/18 11:45:30;;;;;;;12.10;3.90;;;13.30;72.10;;;;;;4929974;29;20058;-68
2022/03/18 11:47:55;;;;;;;18.33;4.25;;;13.40;71.70;;;;;;4933925;29;20046;-68
2022/03/18 11:50:44;;;;;;;18.45;5.97;;;13.50;71.30;;;;;;4923960;29;20059;-68
2022/03/18 11:53:14;;;;;;;18.77;4.30;;;13.50;70.90;;;;;;4930160;29;20047;-67
2022/03/18 11:55:44;;;;;;;12.63;4.22;;;13.60;70.80;;;;;;4926751;29;20405;-67
2022/03/18 11:58:27;;;;;;;16.50;4.18;;;13.60;70.70;;;;;;4934440;29;20616;-67
2022/03/18 12:00:52;;;;;;;15.52;4.30;;;13.70;70.40;;;;;;4934755;29;20059;-67
2022/03/18 12:03:20;;;;;;;13.75;3.83;;;13.70;70.00;;;;;;4949050;29;20516;-67
2022/03/18 12:05:55;;;;;;;16.38;4.88;;;13.80;70.00;;;;;;4934664;29;20094;-67
2022/03/18 12:08:52;;;;;;;14.93;3.53;;;13.90;69.70;;;;;;4934570;29;20154;-68
2022/03/18 12:11:28;;;;;;;11.60;3.70;;;13.90;69.20;;;;;;4930220;29;20062;-68
2022/03/18 12:13:53;;;;;;;17.40;3.95;;;14.00;69.50;;;;;;4922018;29;20040;-67
2022/03/18 12:16:23;;;;;;;11.73;3.90;;;14.10;69.40;;;;;;4933937;29;20040;-68
2022/03/18 12:18:58;;;;;;;13.75;3.75;;;14.20;68.60;;;;;;4934801;29;20050;-70
2022/03/18 12:21:34;;;;;;;18.90;4.50;;;14.20;68.50;;;;;;4934744;29;20055;-70
2022/03/18 12:24:05;;;;;;;15.13;3.22;;;14.20;67.90;;;;;;4933890;29;20444;-67
2022/03/18 12:26:31;;;;;;;19.27;3.65;;;14.20;67.80;;;;;;4928122;29;20059;-68
2022/03/18 12:28:56;;;;;;;17.13;3.78;;;14.30;67.70;;;;;;4929895;29;20055;-68
2022/03/18 12:31:22;;;;;;;15.57;3.35;;;14.40;66.80;;;;;;4934348;29;20047;-68
2022/03/18 12:33:59;;;;;;;20.90;4.32;;;14.30;66.70;;;;;;4929993;28;20035;-68
2022/03/18 12:36:26;;;;;;;17.20;3.50;;;14.40;66.70;;;;;;4916991;29;20565;-68
2022/03/18 12:39:05;;;;;;;17.33;4.13;;;14.40;66.30;;;;;;4931783;29;20511;-68
2022/03/18 12:41:30;;;;;;;20.85;4.00;;;14.50;66.10;;;;;;4933977;29;20058;-69
2022/03/18 12:43:56;;;;;;;18.45;3.45;;;14.50;65.50;;;;;;4933675;29;20047;-68
2022/03/18 12:46:21;;;;;;;22.08;3.60;;;14.50;65.20;;;;;;4923260;29;20601;-68
2022/03/18 12:48:47;;;;;;;16.00;4.50;;;14.50;65.40;;;;;;4917471;29;20040;-68
2022/03/18 12:51:13;;;;;;;15.73;4.28;;;14.50;65.70;;;;;;4914302;29;21235;-68
2022/03/18 12:53:46;;;;;;;13.82;3.63;;;14.60;66.30;;;;;;4914900;29;20257;-68
2022/03/18 12:56:16;;;;;;;14.38;3.10;;;14.60;66.50;;;;;;4914898;29;20071;-68
2022/03/18 12:58:44;;;;;;;18.52;5.47;;;14.80;65.70;;;;;;4914847;29;20079;-67
2022/03/18 13:01:11;;;;;;;16.48;3.00;;;14.80;65.50;;;;;;4914756;29;20091;-67
2022/03/18 13:03:48;;;;;;;16.98;3.65;;;14.70;65.50;;;;;;4915287;29;20062;-67
2022/03/18 13:06:18;;;;;;;15.40;3.50;;;14.90;65.00;;;;;;4914183;29;20048;-66
2022/03/18 13:08:49;;;;;;;17.10;3.88;;;14.90;65.30;;;;;;4915011;29;20081;-67
2022/03/18 13:11:15;;;;;;;18.52;4.13;;;14.90;64.90;;;;;;4914982;29;20056;-67